Time;durP1;ratioP1;P1;durP2;ratioP2;P2;SDS_P1;SDS_P2;PMS_P1;PMS_P2;Temp;Humidity;BMP_temperature;BMP_pressure;BME280_temperature;BME280_humidity;BME280_pressure;Samples;Min_cycle;Max_cycle;Signal;HPM_P1;HPM_P2
2022/05/01 00:01:17;;;;;;;18.67;7.60;;;7.30;94.40;;;;;;4420668;28;657481;-66
2022/05/01 00:04:04;;;;;;;19.13;8.07;;;7.30;92.90;;;;;;4442319;28;658809;-67
2022/05/01 00:06:51;;;;;;;17.42;6.32;;;7.20;91.70;;;;;;4423807;28;656512;-66
2022/05/01 00:09:39;;;;;;;19.43;6.93;;;7.10;99.90;;;;;;4443009;28;658040;-67
2022/05/01 00:12:26;;;;;;;14.03;6.33;;;7.00;99.90;;;;;;4427111;28;656436;-66
2022/05/01 00:15:16;;;;;;;14.70;5.87;;;7.00;99.90;;;;;;4444818;28;658280;-67
2022/05/01 00:18:03;;;;;;;14.00;4.73;;;7.00;99.90;;;;;;4424622;28;657462;-67
2022/05/01 00:20:50;;;;;;;10.03;4.83;;;7.00;98.10;;;;;;4424727;28;656509;-66
2022/05/01 00:23:38;;;;;;;12.80;5.43;;;6.90;98.40;;;;;;4434751;28;657404;-66
2022/05/01 00:26:25;;;;;;;14.63;5.67;;;6.90;96.20;;;;;;4435512;28;656565;-66
2022/05/01 00:29:12;;;;;;;16.87;6.70;;;6.80;97.50;;;;;;4448553;28;657695;-66
2022/05/01 00:32:02;;;;;;;16.47;6.23;;;6.80;94.30;;;;;;4445196;28;656260;-66
2022/05/01 00:37:54;;;;;;;13.97;6.47;;;6.80;94.60;;;;;;4422706;28;656074;-66
2022/05/01 00:40:41;;;;;;;13.73;5.90;;;6.80;96.80;;;;;;4420041;28;656519;-66
2022/05/01 00:43:28;;;;;;;14.80;6.20;;;6.80;99.90;;;;;;4443539;28;657389;-66
2022/05/01 00:46:15;;;;;;;13.07;6.07;;;6.70;99.20;;;;;;4423235;28;657523;-66
2022/05/01 00:49:05;;;;;;;15.23;5.70;;;6.70;99.90;;;;;;4446469;28;657492;-66
2022/05/01 00:51:54;;;;;;;13.93;6.43;;;6.70;99.90;;;;;;4425740;28;658125;-66
2022/05/01 00:54:43;;;;;;;9.90;5.30;;;6.70;99.10;;;;;;4424749;28;656468;-66
2022/05/01 00:57:30;;;;;;;13.90;5.37;;;6.70;99.90;;;;;;4430408;28;655642;-66
2022/05/01 01:00:19;;;;;;;11.47;5.67;;;6.80;99.90;;;;;;4447956;28;658040;-66
2022/05/01 01:03:06;;;;;;;15.50;6.30;;;6.80;99.90;;;;;;4428560;28;656603;-66
2022/05/01 01:05:55;;;;;;;12.37;6.00;;;6.80;99.90;;;;;;4446892;28;657564;-66
2022/05/01 01:08:43;;;;;;;11.00;4.83;;;6.70;99.90;;;;;;4425009;28;658382;-66
2022/05/01 01:11:30;;;;;;;21.67;6.77;;;6.50;99.90;;;;;;4434890;28;656351;-67
2022/05/01 01:14:18;;;;;;;12.57;5.90;;;6.60;99.90;;;;;;4450246;28;656632;-67
2022/05/01 01:17:05;;;;;;;10.70;5.83;;;6.70;99.90;;;;;;4424368;28;656749;-66
2022/05/01 01:19:52;;;;;;;14.30;6.30;;;6.80;98.40;;;;;;4449569;28;656872;-67
2022/05/01 01:22:41;;;;;;;13.83;6.40;;;6.90;96.90;;;;;;4442427;28;656847;-66
2022/05/01 01:25:30;;;;;;;15.18;6.13;;;6.80;97.20;;;;;;4422357;28;657198;-66
2022/05/01 01:28:18;;;;;;;13.47;5.80;;;6.70;99.90;;;;;;4424772;28;657453;-66
2022/05/01 01:34:11;;;;;;;13.63;5.40;;;6.50;99.90;;;;;;4408340;28;656405;-67
2022/05/01 01:36:59;;;;;;;11.40;5.03;;;6.40;99.90;;;;;;4449569;28;657864;-66
2022/05/01 01:39:47;;;;;;;13.47;5.67;;;6.50;99.90;;;;;;4423123;28;656731;-66
2022/05/01 01:42:34;;;;;;;11.23;5.90;;;6.50;99.90;;;;;;4446715;28;657288;-66
2022/05/01 01:45:22;;;;;;;12.50;6.10;;;6.50;99.90;;;;;;4429648;28;657202;-66
2022/05/01 01:48:09;;;;;;;15.23;6.57;;;6.40;99.90;;;;;;4452440;28;656918;-66
2022/05/01 01:50:57;;;;;;;12.17;5.70;;;6.30;99.90;;;;;;4422322;28;657714;-66
2022/05/01 01:53:45;;;;;;;12.87;5.87;;;6.30;99.90;;;;;;4438652;28;656547;-66
2022/05/01 01:56:34;;;;;;;12.07;5.90;;;6.40;99.90;;;;;;4448117;28;658028;-66
2022/05/01 01:59:22;;;;;;;13.00;6.07;;;6.30;99.90;;;;;;4428386;28;657831;-66
2022/05/01 02:02:09;;;;;;;11.50;5.70;;;6.20;99.90;;;;;;4445939;28;656546;-66
2022/05/01 02:04:56;;;;;;;12.30;5.87;;;6.20;99.80;;;;;;4423470;28;656920;-67
2022/05/01 02:07:44;;;;;;;11.30;5.50;;;6.30;99.90;;;;;;4443496;28;657823;-66
2022/05/01 02:10:31;;;;;;;12.60;5.43;;;6.30;99.90;;;;;;4426012;28;656849;-66
2022/05/01 02:13:19;;;;;;;11.67;5.20;;;6.20;99.90;;;;;;4445601;28;656908;-66
2022/05/01 02:16:07;;;;;;;12.27;5.43;;;6.20;99.90;;;;;;4427079;28;656630;-66
2022/05/01 02:18:54;;;;;;;14.70;5.50;;;6.20;99.90;;;;;;4445631;28;656910;-67
2022/05/01 02:21:41;;;;;;;11.13;5.10;;;6.20;99.90;;;;;;4422447;28;656754;-66
2022/05/01 02:24:30;;;;;;;10.13;4.90;;;6.20;99.90;;;;;;4444757;28;657591;-67
2022/05/01 02:27:17;;;;;;;12.07;4.60;;;6.20;99.90;;;;;;4425503;28;657176;-66
2022/05/01 02:30:08;;;;;;;15.90;5.27;;;6.10;99.90;;;;;;4442650;28;656888;-66
2022/05/01 02:32:55;;;;;;;11.33;5.00;;;6.10;99.90;;;;;;4426679;28;657025;-66
2022/05/01 02:35:43;;;;;;;9.63;4.80;;;6.10;98.00;;;;;;4442451;28;657827;-66
2022/05/01 02:38:30;;;;;;;14.57;4.73;;;6.10;97.40;;;;;;4438239;28;655586;-66
2022/05/01 02:41:18;;;;;;;13.30;4.90;;;6.20;96.70;;;;;;4448165;28;656639;-67
2022/05/01 02:44:13;;;;;;;11.93;4.43;;;6.20;95.20;;;;;;4920237;28;132307;-66
2022/05/01 02:47:00;;;;;;;11.35;5.40;;;6.10;95.40;;;;;;4388176;28;650250;-66
2022/05/01 02:49:48;;;;;;;13.07;4.63;;;6.10;93.30;;;;;;4423574;28;651117;-66
2022/05/01 02:52:35;;;;;;;12.63;4.83;;;6.00;95.10;;;;;;4426458;28;650320;-66
2022/05/01 02:55:22;;;;;;;9.83;4.73;;;5.90;96.00;;;;;;4457064;28;651313;-66
2022/05/01 02:58:10;;;;;;;10.07;4.43;;;5.90;96.70;;;;;;4446469;28;648837;-66
2022/05/01 03:00:59;;;;;;;13.53;4.90;;;5.90;98.00;;;;;;4448509;28;652411;-66
2022/05/01 03:03:46;;;;;;;9.70;4.93;;;5.70;99.90;;;;;;4423839;28;651669;-66
2022/05/01 03:06:34;;;;;;;10.80;5.03;;;5.70;99.90;;;;;;4443832;28;651958;-66
2022/05/01 03:09:21;;;;;;;9.80;4.60;;;5.70;99.30;;;;;;4425848;28;651649;-65
2022/05/01 03:12:09;;;;;;;10.00;4.83;;;5.70;98.50;;;;;;4437325;28;652694;-66
2022/05/01 03:14:57;;;;;;;10.43;5.10;;;5.70;99.80;;;;;;4421056;28;652400;-66
2022/05/01 03:23:55;;;;;;;10.57;4.80;;;5.70;98.90;;;;;;4398678;28;651878;-65
2022/05/01 03:26:43;;;;;;;9.20;4.70;;;5.70;99.90;;;;;;4442955;28;654344;-65
2022/05/01 03:29:30;;;;;;;7.87;4.53;;;5.60;99.90;;;;;;4436735;28;651493;-66
2022/05/01 03:32:17;;;;;;;12.37;4.90;;;5.60;99.90;;;;;;4448382;28;652455;-66
2022/05/01 03:35:07;;;;;;;12.60;5.23;;;5.70;99.90;;;;;;4442276;28;652497;-66
2022/05/01 03:37:54;;;;;;;11.53;5.20;;;5.60;99.90;;;;;;4454944;28;652304;-65
2022/05/01 03:40:42;;;;;;;11.03;5.17;;;5.70;99.90;;;;;;4438847;28;653895;-66
2022/05/01 03:43:29;;;;;;;10.07;5.27;;;5.70;99.90;;;;;;4463858;28;652619;-66
2022/05/01 03:46:20;;;;;;;11.73;5.23;;;5.80;99.90;;;;;;4444516;28;653187;-66
2022/05/01 03:49:07;;;;;;;12.90;5.50;;;5.90;97.70;;;;;;4441772;28;652854;-65
2022/05/01 03:51:56;;;;;;;14.47;5.40;;;6.00;98.20;;;;;;4462447;28;652975;-66
2022/05/01 03:54:43;;;;;;;10.57;5.20;;;6.10;99.90;;;;;;4432235;28;653541;-66
2022/05/01 03:57:32;;;;;;;11.10;5.60;;;6.10;99.40;;;;;;4430805;28;652613;-66
2022/05/01 04:00:19;;;;;;;11.13;5.50;;;6.20;95.40;;;;;;4446811;28;652974;-66
2022/05/01 04:03:07;;;;;;;12.27;6.00;;;6.20;95.20;;;;;;4434985;28;652238;-66
2022/05/01 04:05:54;;;;;;;15.57;6.00;;;6.40;94.90;;;;;;4456261;28;652129;-66
2022/05/01 04:08:43;;;;;;;15.10;5.77;;;6.50;95.30;;;;;;4433793;28;652458;-66
2022/05/01 04:11:31;;;;;;;19.40;6.47;;;6.60;92.10;;;;;;4429785;28;652497;-66
2022/05/01 04:14:18;;;;;;;12.23;5.80;;;6.80;90.80;;;;;;4453390;28;653100;-66
2022/05/01 04:17:05;;;;;;;13.80;6.32;;;6.90;89.10;;;;;;4433463;28;652483;-65
2022/05/01 04:19:53;;;;;;;13.00;6.13;;;7.10;87.10;;;;;;4450967;28;653160;-66
2022/05/01 04:22:40;;;;;;;20.27;7.80;;;7.20;86.20;;;;;;4432089;28;652357;-66
2022/05/01 04:25:30;;;;;;;14.37;6.30;;;7.20;89.90;;;;;;4449751;28;653707;-65
2022/05/01 04:28:17;;;;;;;14.17;6.50;;;7.30;91.00;;;;;;4414313;28;653353;-65
2022/05/01 04:31:05;;;;;;;14.50;6.27;;;7.50;90.90;;;;;;4441121;28;652224;-66
2022/05/01 04:33:52;;;;;;;13.63;6.63;;;7.70;85.80;;;;;;4452130;28;652692;-66
2022/05/01 04:36:41;;;;;;;13.33;6.97;;;7.80;90.10;;;;;;4445224;28;652397;-65
2022/05/01 04:39:28;;;;;;;17.03;7.37;;;8.00;92.50;;;;;;4426232;28;653453;-66
2022/05/01 04:42:17;;;;;;;14.45;7.80;;;8.10;92.80;;;;;;4433314;28;652086;-66
2022/05/01 04:45:05;;;;;;;18.53;9.20;;;8.30;93.30;;;;;;4447620;28;652766;-65
2022/05/01 04:47:52;;;;;;;20.63;9.60;;;8.50;92.40;;;;;;4422767;28;653520;-66
2022/05/01 04:50:39;;;;;;;21.33;10.73;;;8.70;92.80;;;;;;4448694;28;652557;-66
2022/05/01 04:53:26;;;;;;;21.70;10.53;;;8.90;87.80;;;;;;4427758;28;653972;-66
2022/05/01 04:59:19;;;;;;;21.13;10.30;;;9.30;87.20;;;;;;4424275;28;654000;-66
2022/05/01 05:02:06;;;;;;;20.07;10.70;;;9.50;81.70;;;;;;4423469;28;653613;-65
2022/05/01 05:04:54;;;;;;;21.53;10.57;;;9.70;83.20;;;;;;4448393;28;653279;-66
2022/05/01 05:07:41;;;;;;;22.90;10.60;;;9.80;79.50;;;;;;4427977;28;653531;-66
2022/05/01 05:10:27;;;;;;;24.57;10.40;;;9.90;77.80;;;;;;4450068;28;653985;-66
2022/05/01 05:13:14;;;;;;;17.00;10.00;;;10.00;79.70;;;;;;4449214;28;653640;-66
2022/05/01 05:16:08;;;;;;;20.87;10.53;;;10.20;77.90;;;;;;4427605;28;654588;-66
2022/05/01 05:18:55;;;;;;;22.20;10.40;;;10.30;76.50;;;;;;4407474;28;655112;-66
2022/05/01 05:21:42;;;;;;;18.43;10.47;;;10.40;76.20;;;;;;4448719;28;655466;-66
2022/05/01 05:24:30;;;;;;;22.73;10.57;;;10.60;74.00;;;;;;4452681;28;653450;-66
2022/05/01 05:27:20;;;;;;;16.50;10.17;;;10.70;69.90;;;;;;4424135;28;655412;-66
2022/05/01 05:30:08;;;;;;;17.80;10.50;;;10.90;70.40;;;;;;4429188;28;655812;-66
2022/05/01 05:32:57;;;;;;;16.25;10.02;;;11.10;70.40;;;;;;4425158;28;655617;-66
2022/05/01 05:35:44;;;;;;;14.93;9.50;;;11.20;71.10;;;;;;4443777;28;655617;-66
2022/05/01 05:38:33;;;;;;;20.33;9.90;;;11.30;71.30;;;;;;4427246;28;654471;-66
2022/05/01 05:41:21;;;;;;;14.57;9.23;;;11.40;67.00;;;;;;4426873;28;654173;-66
2022/05/01 05:44:08;;;;;;;16.20;9.17;;;11.40;65.70;;;;;;4450898;28;655127;-66
2022/05/01 05:46:55;;;;;;;17.63;9.10;;;11.50;63.20;;;;;;4424724;28;654519;-66
2022/05/01 05:49:44;;;;;;;19.53;9.43;;;11.60;63.30;;;;;;4445780;28;655909;-66
2022/05/01 05:52:32;;;;;;;15.10;9.13;;;11.60;66.30;;;;;;4429244;28;654632;-66
2022/05/01 05:55:20;;;;;;;20.03;9.97;;;11.70;65.00;;;;;;4442650;28;654160;-66
2022/05/01 05:58:07;;;;;;;16.43;9.43;;;11.80;64.30;;;;;;4441669;28;654878;-65
2022/05/01 06:00:54;;;;;;;18.40;9.60;;;12.00;62.30;;;;;;4443308;28;655033;-66
2022/05/01 06:03:42;;;;;;;14.83;9.00;;;12.10;62.50;;;;;;4419862;28;654705;-66
2022/05/01 06:06:30;;;;;;;15.97;9.37;;;12.30;62.70;;;;;;4446900;28;655355;-66
2022/05/01 06:09:17;;;;;;;14.83;8.53;;;12.40;61.50;;;;;;4428206;28;655071;-66
2022/05/01 06:12:05;;;;;;;14.10;8.17;;;12.50;60.30;;;;;;4446882;28;654715;-66
2022/05/01 06:14:53;;;;;;;13.87;9.23;;;12.60;59.90;;;;;;4421303;28;655713;-66
2022/05/01 06:17:40;;;;;;;19.53;8.50;;;12.70;60.40;;;;;;4433124;28;654412;-66
2022/05/01 06:20:27;;;;;;;18.50;8.87;;;12.80;59.60;;;;;;4449888;28;654350;-66
2022/05/01 06:23:17;;;;;;;18.50;8.90;;;12.90;59.90;;;;;;4447931;28;654302;-66
2022/05/01 06:26:05;;;;;;;16.20;8.97;;;13.00;58.60;;;;;;4444844;28;655100;-66
2022/05/01 06:28:52;;;;;;;16.27;9.10;;;13.20;58.60;;;;;;4429625;28;656439;-66
2022/05/01 06:31:40;;;;;;;13.70;8.67;;;13.30;59.20;;;;;;4444641;28;655466;-66
2022/05/01 06:34:27;;;;;;;18.57;8.87;;;13.50;58.20;;;;;;4417126;28;654853;-66
2022/05/01 06:37:14;;;;;;;21.57;11.33;;;13.70;56.80;;;;;;4433968;28;654722;-66
2022/05/01 06:40:03;;;;;;;25.00;10.60;;;13.80;59.40;;;;;;4420388;28;655547;-66
2022/05/01 06:42:50;;;;;;;20.43;11.20;;;13.90;60.30;;;;;;4420587;28;655506;-66
2022/05/01 06:45:38;;;;;;;18.47;10.30;;;13.50;58.30;;;;;;4440945;28;656690;-66
2022/05/01 06:48:25;;;;;;;16.70;8.77;;;13.70;59.30;;;;;;4426735;28;656824;-66
2022/05/01 06:51:12;;;;;;;16.63;8.27;;;14.00;58.00;;;;;;4444200;28;654704;-66
2022/05/01 06:53:59;;;;;;;14.57;8.80;;;14.30;57.10;;;;;;4436812;28;654767;-66
2022/05/01 06:56:48;;;;;;;15.17;9.10;;;14.50;54.50;;;;;;4421849;28;654644;-65
2022/05/01 06:59:35;;;;;;;18.88;8.73;;;14.60;55.50;;;;;;4426270;28;654512;-66
2022/05/01 07:02:22;;;;;;;13.27;8.50;;;14.90;57.50;;;;;;4438536;28;654377;-66
2022/05/01 07:05:09;;;;;;;14.50;9.20;;;15.10;54.80;;;;;;4448625;28;654509;-66
2022/05/01 07:07:57;;;;;;;15.40;8.47;;;15.20;55.80;;;;;;4421530;28;654428;-66
2022/05/01 07:10:44;;;;;;;14.93;8.60;;;15.40;53.40;;;;;;4445445;28;654876;-66
2022/05/01 07:13:33;;;;;;;16.83;8.30;;;15.60;52.60;;;;;;4427476;28;654614;-66
2022/05/01 07:16:22;;;;;;;12.50;7.87;;;15.80;52.60;;;;;;4428609;28;655043;-66
2022/05/01 07:19:09;;;;;;;15.93;8.73;;;15.70;52.90;;;;;;4440162;28;654577;-66
2022/05/01 07:21:56;;;;;;;17.50;9.10;;;15.90;51.40;;;;;;4415437;28;654794;-66
2022/05/01 07:24:43;;;;;;;13.27;8.33;;;16.00;52.70;;;;;;4444487;28;655711;-66
2022/05/01 07:27:31;;;;;;;13.83;8.10;;;15.90;52.50;;;;;;4435526;28;655374;-66
2022/05/01 07:30:19;;;;;;;15.03;8.53;;;16.30;51.60;;;;;;4445209;28;656937;-66
2022/05/01 07:33:07;;;;;;;13.07;8.20;;;16.60;50.50;;;;;;4413842;28;655772;-66
2022/05/01 07:35:54;;;;;;;13.13;8.00;;;16.70;51.80;;;;;;4439752;28;655391;-66
2022/05/01 07:38:41;;;;;;;15.37;8.60;;;17.00;51.00;;;;;;4415764;28;655617;-66
2022/05/01 07:41:28;;;;;;;15.57;8.33;;;17.10;50.40;;;;;;4445697;28;655503;-66
2022/05/01 07:44:15;;;;;;;18.23;9.20;;;17.00;48.40;;;;;;4424513;28;656721;-66
2022/05/01 07:47:04;;;;;;;11.87;7.33;;;16.50;47.10;;;;;;4446654;28;656790;-66
2022/05/01 07:49:51;;;;;;;13.73;6.90;;;17.10;50.30;;;;;;4422866;28;655977;-66
2022/05/01 07:52:39;;;;;;;13.87;8.00;;;17.20;46.80;;;;;;4435888;28;656752;-66
2022/05/01 07:55:26;;;;;;;13.37;7.63;;;17.30;46.50;;;;;;4428371;28;655782;-66
2022/05/01 07:58:14;;;;;;;12.93;7.63;;;17.60;49.50;;;;;;4443890;28;656186;-66
2022/05/01 08:01:03;;;;;;;13.00;7.67;;;17.90;48.00;;;;;;4426856;28;655821;-66
2022/05/01 08:07:00;;;;;;;15.13;8.30;;;18.10;48.10;;;;;;4397106;28;656651;-66
2022/05/01 08:09:47;;;;;;;13.57;8.03;;;18.10;47.30;;;;;;4420761;28;657165;-66
2022/05/01 08:12:34;;;;;;;13.47;7.97;;;18.10;45.30;;;;;;4447073;28;655828;-66
2022/05/01 08:15:22;;;;;;;13.20;8.60;;;18.30;47.10;;;;;;4430881;28;655023;-66
2022/05/01 08:21:16;;;;;;;13.90;8.17;;;18.60;47.10;;;;;;4421324;28;656268;-66
2022/05/01 08:24:04;;;;;;;14.77;7.90;;;18.50;48.30;;;;;;4423103;28;655803;-66
2022/05/01 08:26:51;;;;;;;12.20;7.47;;;18.30;46.60;;;;;;4424929;28;655437;-66
2022/05/01 08:29:38;;;;;;;14.60;8.27;;;18.40;48.40;;;;;;4451241;28;655703;-66
2022/05/01 08:32:26;;;;;;;9.70;6.83;;;18.70;45.80;;;;;;4421132;28;657674;-66
2022/05/01 08:35:13;;;;;;;13.83;7.47;;;19.10;46.20;;;;;;4441328;28;655698;-66
2022/05/01 08:38:02;;;;;;;15.97;8.83;;;19.40;44.80;;;;;;4425983;28;655320;-66
2022/05/01 08:40:51;;;;;;;15.30;7.15;;;19.40;43.50;;;;;;4443259;28;656443;-66
2022/05/01 08:43:38;;;;;;;10.73;7.03;;;19.20;43.40;;;;;;4422478;28;657007;-66
2022/05/01 08:46:32;;;;;;;13.67;7.23;;;19.30;43.10;;;;;;4428308;28;655502;-66
2022/05/01 08:49:19;;;;;;;10.83;7.20;;;19.60;43.50;;;;;;4423404;28;655894;-66
2022/05/01 08:52:09;;;;;;;13.87;7.00;;;19.90;42.00;;;;;;4426763;28;656733;-66
2022/05/01 08:54:59;;;;;;;11.43;6.93;;;20.00;43.80;;;;;;4425491;28;655318;-66
2022/05/01 08:57:46;;;;;;;11.60;6.57;;;19.90;42.60;;;;;;4430518;28;656093;-66
2022/05/01 09:00:33;;;;;;;13.03;6.00;;;19.70;42.70;;;;;;4447738;28;656656;-66
2022/05/01 09:03:20;;;;;;;10.55;6.40;;;19.90;41.20;;;;;;4427306;28;655760;-66
2022/05/01 09:06:07;;;;;;;13.93;6.97;;;20.10;45.90;;;;;;4445412;28;656576;-66
2022/05/01 09:08:54;;;;;;;11.40;5.67;;;19.70;42.60;;;;;;4443349;28;654876;-66
2022/05/01 09:14:49;;;;;;;15.17;7.70;;;19.60;39.40;;;;;;4394580;28;656647;-66
2022/05/01 09:17:36;;;;;;;11.87;6.77;;;20.10;41.90;;;;;;4425176;28;655757;-66
2022/05/01 09:20:24;;;;;;;9.83;6.23;;;20.20;42.90;;;;;;4442844;28;656718;-66
2022/05/01 09:23:11;;;;;;;10.07;5.77;;;20.40;40.40;;;;;;4430037;28;655437;-66
2022/05/01 09:26:02;;;;;;;8.93;5.77;;;19.70;40.20;;;;;;4451639;28;655758;-66
2022/05/01 09:28:51;;;;;;;8.83;5.70;;;20.00;42.10;;;;;;4422228;28;655310;-66
2022/05/01 09:31:45;;;;;;;10.40;5.47;;;20.70;43.40;;;;;;4420205;28;655977;-66
2022/05/01 09:34:37;;;;;;;10.83;6.00;;;21.30;40.40;;;;;;4419173;28;655531;-66
2022/05/01 09:37:25;;;;;;;9.97;6.33;;;21.30;39.80;;;;;;4418201;28;655739;-66
2022/05/01 09:40:13;;;;;;;10.43;5.77;;;21.30;40.10;;;;;;4451029;28;654878;-66
2022/05/01 09:43:01;;;;;;;13.90;5.50;;;21.20;38.70;;;;;;4426676;28;655131;-66
2022/05/01 09:45:49;;;;;;;14.63;5.70;;;20.80;39.00;;;;;;4442746;28;657210;-66
2022/05/01 09:48:36;;;;;;;10.87;5.83;;;20.60;40.40;;;;;;4421442;28;655967;-66
2022/05/01 09:51:24;;;;;;;8.67;5.83;;;20.90;38.70;;;;;;4444746;28;656056;-66
2022/05/01 09:54:17;;;;;;;11.30;5.27;;;20.00;40.00;;;;;;4427959;28;655258;-66
2022/05/01 09:57:05;;;;;;;11.93;5.28;;;20.70;38.50;;;;;;4421889;28;655938;-66
2022/05/01 09:59:52;;;;;;;7.20;5.57;;;20.80;39.30;;;;;;4418931;28;656093;-67
2022/05/01 10:02:42;;;;;;;8.13;5.70;;;21.60;36.80;;;;;;4478185;28;654457;-67
2022/05/01 10:05:29;;;;;;;9.03;5.73;;;22.20;35.50;;;;;;4441989;28;654698;-67
2022/05/01 10:08:17;;;;;;;7.90;5.03;;;21.80;36.70;;;;;;4421868;28;654907;-66
2022/05/01 10:11:04;;;;;;;7.93;4.70;;;20.10;33.50;;;;;;4453077;28;654662;-66
2022/05/01 10:13:51;;;;;;;10.93;5.27;;;20.50;37.70;;;;;;4444015;28;654171;-66
2022/05/01 10:16:41;;;;;;;7.53;5.03;;;20.20;36.00;;;;;;4436073;28;656397;-66
2022/05/01 10:19:30;;;;;;;6.83;4.67;;;20.20;37.80;;;;;;4420588;28;655324;-67
2022/05/01 10:22:17;;;;;;;9.93;5.37;;;21.10;35.40;;;;;;4415999;28;655383;-66
2022/05/01 10:25:06;;;;;;;8.40;4.87;;;20.80;40.60;;;;;;4414189;28;654025;-66
2022/05/01 10:27:55;;;;;;;9.67;5.10;;;20.40;34.60;;;;;;4423762;28;655231;-67
2022/05/01 10:34:38;;;;;;;7.03;4.77;;;21.60;35.70;;;;;;4366961;28;655122;-66
2022/05/01 10:37:39;;;;;;;9.77;4.57;;;21.20;34.90;;;;;;4399118;28;654380;-67
2022/05/01 10:40:27;;;;;;;10.50;5.20;;;21.10;33.80;;;;;;4429537;28;654868;-66
2022/05/01 10:43:28;;;;;;;8.83;4.47;;;21.60;34.80;;;;;;4443127;28;655737;-67
2022/05/01 10:46:27;;;;;;;10.07;4.67;;;21.50;33.70;;;;;;4402754;28;655095;-67
2022/05/01 10:49:34;;;;;;;9.40;4.50;;;21.50;32.80;;;;;;4414931;28;655317;-67
2022/05/01 10:52:21;;;;;;;6.27;4.63;;;22.00;33.80;;;;;;4424430;28;654348;-67
2022/05/01 10:55:09;;;;;;;8.80;4.70;;;22.50;34.20;;;;;;4441997;28;654188;-67
2022/05/01 10:58:18;;;;;;;6.43;4.87;;;20.70;37.00;;;;;;4429591;28;654828;-67
2022/05/01 11:01:05;;;;;;;9.83;4.67;;;21.40;36.40;;;;;;4400672;28;655137;-67
2022/05/01 11:03:52;;;;;;;7.13;5.07;;;21.70;35.30;;;;;;4452039;28;655218;-66
2022/05/01 11:06:43;;;;;;;9.23;5.10;;;21.90;38.10;;;;;;4444055;28;654839;-66
2022/05/01 11:09:32;;;;;;;6.73;4.53;;;21.90;35.80;;;;;;4439676;28;654375;-66
2022/05/01 11:12:22;;;;;;;9.17;5.40;;;20.70;36.80;;;;;;4448812;28;654332;-66
2022/05/01 11:15:10;;;;;;;7.53;4.83;;;20.10;37.20;;;;;;4450870;28;654763;-67
2022/05/01 11:17:57;;;;;;;7.03;4.97;;;19.70;38.20;;;;;;4431402;28;655517;-66
2022/05/01 11:20:46;;;;;;;8.50;4.90;;;19.50;38.80;;;;;;4446611;28;654839;-65
2022/05/01 11:23:34;;;;;;;11.30;5.27;;;19.40;39.60;;;;;;4428208;28;655632;-65
2022/05/01 11:26:22;;;;;;;10.23;5.70;;;19.20;38.50;;;;;;4428566;28;656208;-66
2022/05/01 11:29:10;;;;;;;8.93;5.50;;;19.10;40.50;;;;;;4448728;28;655123;-66
2022/05/01 11:31:58;;;;;;;10.93;5.60;;;19.00;40.20;;;;;;4428946;28;655797;-66
2022/05/01 11:34:52;;;;;;;12.90;5.27;;;19.10;40.70;;;;;;4443805;28;655731;-66
2022/05/01 11:37:47;;;;;;;9.47;5.50;;;19.10;40.30;;;;;;4425182;28;657097;-66
2022/05/01 11:40:36;;;;;;;8.47;5.20;;;19.40;39.50;;;;;;4419623;28;654370;-66
2022/05/01 11:43:23;;;;;;;12.73;4.80;;;19.30;39.00;;;;;;4424271;28;655421;-66
2022/05/01 11:46:18;;;;;;;9.60;5.70;;;19.10;40.20;;;;;;4425822;28;655595;-67
2022/05/01 11:49:08;;;;;;;8.63;5.23;;;19.20;39.10;;;;;;4411141;28;655518;-66
2022/05/01 11:51:57;;;;;;;9.90;4.90;;;19.00;40.10;;;;;;4439691;28;654943;-66
2022/05/01 11:54:52;;;;;;;7.10;4.57;;;18.60;39.10;;;;;;4446713;28;655935;-66
2022/05/01 12:03:58;;;;;;;11.57;5.43;;;18.90;41.10;;;;;;4411757;28;656223;-66
2022/05/01 12:06:45;;;;;;;7.53;5.37;;;19.10;42.10;;;;;;4429961;28;655637;-66
2022/05/01 12:09:35;;;;;;;11.20;5.27;;;19.10;40.20;;;;;;4452362;28;655298;-66
2022/05/01 12:12:22;;;;;;;13.17;5.83;;;19.20;39.20;;;;;;4416540;28;656371;-65
2022/05/01 12:15:11;;;;;;;11.50;5.30;;;18.80;39.40;;;;;;4437383;28;655764;-66
2022/05/01 12:17:58;;;;;;;8.40;5.27;;;18.90;38.90;;;;;;4425562;28;657816;-66
2022/05/01 12:20:45;;;;;;;7.43;5.20;;;18.80;39.90;;;;;;4431570;28;654679;-66
2022/05/01 12:23:33;;;;;;;9.37;5.53;;;18.80;39.90;;;;;;4450459;28;655428;-66
2022/05/01 12:26:20;;;;;;;11.50;5.30;;;18.80;38.80;;;;;;4428743;28;654739;-65
2022/05/01 12:29:09;;;;;;;8.90;5.60;;;18.70;39.40;;;;;;4444751;28;657016;-65
2022/05/01 12:32:02;;;;;;;10.70;5.07;;;18.80;39.80;;;;;;4423269;28;657647;-66
2022/05/01 12:34:56;;;;;;;13.00;5.33;;;18.70;40.50;;;;;;4420158;28;656941;-65
2022/05/01 12:37:43;;;;;;;11.13;5.53;;;18.70;39.80;;;;;;4421801;28;656307;-66
2022/05/01 12:46:39;;;;;;;10.23;5.23;;;18.30;38.90;;;;;;4406573;28;655127;-65
2022/05/01 12:49:28;;;;;;;7.90;5.10;;;18.10;39.30;;;;;;4435580;28;655810;-65
2022/05/01 12:52:30;;;;;;;11.23;5.43;;;18.10;39.90;;;;;;4434464;28;654906;-65
2022/05/01 12:55:18;;;;;;;7.50;4.80;;;18.00;40.80;;;;;;4426032;28;656583;-65
2022/05/01 12:58:06;;;;;;;9.77;5.23;;;18.00;39.40;;;;;;4423998;28;654585;-66
2022/05/01 13:00:53;;;;;;;11.57;5.87;;;17.90;39.50;;;;;;4452506;28;655809;-66
2022/05/01 13:03:40;;;;;;;7.97;4.70;;;17.80;40.80;;;;;;4435895;28;655660;-66
2022/05/01 13:06:37;;;;;;;8.27;5.30;;;17.80;41.00;;;;;;4453316;28;655419;-66
2022/05/01 13:09:24;;;;;;;7.40;5.20;;;17.80;40.30;;;;;;4424487;28;654425;-66
2022/05/01 13:12:11;;;;;;;10.40;4.80;;;18.00;40.10;;;;;;4424962;28;654978;-66
2022/05/01 13:15:02;;;;;;;9.13;5.43;;;17.90;38.10;;;;;;4453552;28;656232;-65
2022/05/01 13:18:01;;;;;;;8.77;5.17;;;17.90;38.80;;;;;;4423165;28;655800;-65
2022/05/01 13:20:48;;;;;;;7.37;5.10;;;18.30;41.00;;;;;;4422091;28;655087;-66
2022/05/01 13:23:37;;;;;;;11.30;5.43;;;18.50;41.90;;;;;;4429134;28;654537;-66
2022/05/01 13:26:24;;;;;;;8.73;5.10;;;18.30;40.70;;;;;;4441825;28;655677;-66
2022/05/01 13:29:12;;;;;;;11.70;5.60;;;18.20;40.30;;;;;;4428380;28;654584;-66
2022/05/01 13:32:00;;;;;;;10.17;5.87;;;18.20;41.90;;;;;;4446758;28;655109;-66
2022/05/01 13:34:47;;;;;;;10.93;4.90;;;18.30;39.80;;;;;;4431604;28;656690;-66
2022/05/01 13:37:36;;;;;;;10.40;5.50;;;18.50;40.10;;;;;;4501234;28;655215;-66
2022/05/01 13:46:34;;;;;;;10.50;6.50;;;18.30;39.60;;;;;;4428675;28;654810;-65
2022/05/01 13:49:22;;;;;;;12.73;6.77;;;18.20;40.40;;;;;;4418194;28;655954;-66
2022/05/01 13:52:09;;;;;;;8.33;5.20;;;18.40;40.80;;;;;;4443409;28;655106;-65
2022/05/01 13:54:56;;;;;;;8.53;4.90;;;18.30;42.70;;;;;;4425378;28;655020;-66
2022/05/01 13:57:45;;;;;;;8.20;4.50;;;18.40;41.30;;;;;;4457926;28;655226;-66
2022/05/01 14:00:33;;;;;;;8.47;5.07;;;18.50;43.30;;;;;;4428156;28;656096;-65
2022/05/01 14:03:20;;;;;;;7.40;5.18;;;18.70;42.20;;;;;;4427839;28;655206;-65
2022/05/01 14:06:07;;;;;;;6.27;4.63;;;19.30;42.60;;;;;;4434493;28;655001;-65
2022/05/01 14:08:55;;;;;;;11.23;5.00;;;19.70;39.30;;;;;;4439615;28;654276;-66
2022/05/01 14:11:42;;;;;;;8.17;4.27;;;20.10;41.50;;;;;;4447615;28;656284;-66
2022/05/01 14:14:31;;;;;;;6.87;4.63;;;20.20;39.60;;;;;;4445573;28;654524;-66
2022/05/01 14:17:18;;;;;;;10.63;4.53;;;20.20;38.10;;;;;;4425081;28;655110;-65
2022/05/01 14:20:07;;;;;;;8.10;4.65;;;20.00;38.20;;;;;;4427677;28;655633;-66
2022/05/01 14:22:55;;;;;;;8.33;4.90;;;19.80;37.50;;;;;;4440808;28;654690;-66
2022/05/01 14:25:42;;;;;;;7.83;4.70;;;19.20;37.30;;;;;;4458021;28;655159;-66
2022/05/01 14:28:29;;;;;;;8.77;5.33;;;18.90;39.50;;;;;;4452555;28;655297;-66
2022/05/01 14:31:20;;;;;;;7.37;4.90;;;18.90;39.90;;;;;;4424560;28;654208;-66
2022/05/01 14:34:10;;;;;;;12.23;4.77;;;19.00;39.50;;;;;;4415017;28;655730;-66
2022/05/01 14:36:58;;;;;;;6.77;4.73;;;18.90;41.20;;;;;;4430241;28;655792;-66
2022/05/01 14:39:45;;;;;;;6.90;4.83;;;18.70;39.20;;;;;;4427236;28;654485;-65
2022/05/01 14:42:33;;;;;;;8.57;5.50;;;18.40;39.80;;;;;;4448594;28;656151;-65
2022/05/01 14:45:22;;;;;;;9.70;5.00;;;18.50;38.50;;;;;;4431597;28;654740;-66
2022/05/01 14:48:15;;;;;;;7.20;5.00;;;18.50;39.20;;;;;;4446033;28;655183;-66
2022/05/01 14:51:02;;;;;;;11.33;5.40;;;18.50;39.20;;;;;;4421350;28;656083;-66
2022/05/01 14:53:50;;;;;;;7.97;4.97;;;18.60;38.40;;;;;;4442617;28;655588;-66
2022/05/01 14:56:38;;;;;;;10.30;4.83;;;18.30;37.00;;;;;;4426403;28;654870;-66
2022/05/01 15:08:44;;;;;;;9.27;4.80;;;18.80;38.00;;;;;;4421089;28;656156;-66
2022/05/01 15:11:31;;;;;;;9.63;5.40;;;18.80;39.80;;;;;;4416283;28;654434;-66
2022/05/01 15:14:19;;;;;;;8.93;4.70;;;18.80;37.50;;;;;;4437956;28;655803;-66
2022/05/01 15:17:08;;;;;;;6.33;4.83;;;18.90;36.80;;;;;;4424115;28;655309;-66